createdAt,value
2023-05-21T00:00:12.302Z,67.79
2023-05-21T00:01:16.673Z,68.02
2023-05-21T00:02:20.167Z,67.94
2023-05-21T00:03:23.921Z,67.62
2023-05-21T00:04:29.207Z,67.71
2023-05-21T00:05:32.896Z,68.22
2023-05-21T00:06:36.485Z,68.25
2023-05-21T00:07:39.920Z,68.17
2023-05-21T00:08:43.844Z,68.68
2023-05-21T00:09:46.781Z,69.11
2023-05-21T00:10:49.911Z,69.16
2023-05-21T00:11:52.888Z,68.90
2023-05-21T00:12:55.778Z,68.96
2023-05-21T00:13:59.197Z,69.12
2023-05-21T00:15:02.265Z,69.59
2023-05-21T00:16:05.626Z,69.18
2023-05-21T00:17:08.619Z,69.28
2023-05-21T00:18:12.233Z,69.61
2023-05-21T00:19:15.234Z,69.62
2023-05-21T00:20:18.309Z,68.89
2023-05-21T00:21:26.662Z,68.96
2023-05-21T00:22:29.604Z,69.17
2023-05-21T00:23:32.962Z,69.33
2023-05-21T00:24:36.176Z,69.19
2023-05-21T00:25:39.083Z,69.29
2023-05-21T00:26:43.474Z,69.01
2023-05-21T00:27:46.592Z,69.17
2023-05-21T00:28:49.771Z,69.40
2023-05-21T00:29:52.808Z,69.81
2023-05-21T00:30:55.843Z,70.21
2023-05-21T00:31:59.200Z,70.14
2023-05-21T00:33:03.437Z,69.33
2023-05-21T00:34:06.422Z,69.17
2023-05-21T00:35:09.916Z,70.02
2023-05-21T00:36:14.824Z,69.84
2023-05-21T00:37:17.947Z,70.10
2023-05-21T00:38:22.412Z,69.86
2023-05-21T00:39:25.378Z,69.84
2023-05-21T00:40:28.461Z,70.04
2023-05-21T00:41:31.721Z,70.04
2023-05-21T00:42:39.536Z,70.36
2023-05-21T00:43:45.066Z,70.45
2023-05-21T00:44:48.647Z,70.00
2023-05-21T00:45:54.102Z,69.95
2023-05-21T00:46:57.121Z,69.83
2023-05-21T00:48:00.173Z,70.14
2023-05-21T00:49:03.261Z,70.54
2023-05-21T00:50:06.906Z,70.55
2023-05-21T00:51:10.143Z,70.61
2023-05-21T00:52:13.106Z,70.56
2023-05-21T00:53:18.366Z,70.72
2023-05-21T00:54:21.825Z,71.14
2023-05-21T00:55:24.881Z,70.82
2023-05-21T00:56:27.942Z,71.04
2023-05-21T00:57:33.556Z,71.28
2023-05-21T00:58:37.480Z,71.48
2023-05-21T00:59:40.569Z,71.50
2023-05-21T01:00:43.830Z,71.40
2023-05-21T01:01:46.923Z,71.60
2023-05-21T01:02:50.910Z,71.74
2023-05-21T01:03:57.977Z,71.76
2023-05-21T01:05:01.214Z,71.99
2023-05-21T01:06:09.443Z,72.21
2023-05-21T01:07:13.625Z,72.34
2023-05-21T01:08:16.784Z,72.13
2023-05-21T01:09:20.408Z,72.40
2023-05-21T01:10:23.794Z,72.70
2023-05-21T01:11:40.727Z,72.91
2023-05-21T01:12:45.100Z,72.75
2023-05-21T01:13:48.723Z,72.55
2023-05-21T01:14:52.431Z,72.68
2023-05-21T01:15:55.750Z,72.91
2023-05-21T01:16:59.996Z,73.05
2023-05-21T01:18:03.254Z,73.08
2023-05-21T01:19:07.605Z,73.09
2023-05-21T01:20:11.516Z,72.29
2023-05-21T01:21:17.811Z,72.43
2023-05-21T01:22:22.976Z,72.88
2023-05-21T01:23:26.278Z,72.64
2023-05-21T01:24:29.323Z,72.61
2023-05-21T01:25:32.427Z,72.48
2023-05-21T01:26:39.245Z,72.88
2023-05-21T01:27:42.225Z,72.91
2023-05-21T01:28:45.105Z,72.79
2023-05-21T01:29:48.057Z,72.78
2023-05-21T01:30:51.264Z,72.68
2023-05-21T01:32:06.045Z,72.94
2023-05-21T01:33:24.894Z,72.99
2023-05-21T01:34:40.156Z,72.96
2023-05-21T01:36:02.448Z,72.80
2023-05-21T01:37:24.812Z,72.93
2023-05-21T01:38:34.586Z,73.25
2023-05-21T01:39:41.011Z,73.11
2023-05-21T01:40:54.580Z,72.87
2023-05-21T01:41:58.505Z,73.02
2023-05-21T01:43:04.050Z,73.04
2023-05-21T01:44:09.046Z,73.02
2023-05-21T01:45:15.207Z,72.93
2023-05-21T01:46:23.933Z,72.79
2023-05-21T01:47:29.986Z,72.91
2023-05-21T01:48:34.944Z,72.56
2023-05-21T01:49:38.307Z,72.42
2023-05-21T01:50:44.291Z,72.46
2023-05-21T01:51:48.520Z,73.04
2023-05-21T01:53:01.607Z,73.05
2023-05-21T01:54:04.650Z,73.29
2023-05-21T01:55:07.813Z,72.43
2023-05-21T01:56:11.627Z,72.24
2023-05-21T01:57:14.566Z,72.48
2023-05-21T01:58:17.715Z,73.06
2023-05-21T01:59:20.665Z,73.32
2023-05-21T02:00:25.893Z,73.47
2023-05-21T02:01:30.575Z,73.60
2023-05-21T02:02:33.635Z,73.53
2023-05-21T02:03:37.126Z,73.66
2023-05-21T02:04:41.772Z,73.69
2023-05-21T02:05:45.108Z,73.52
2023-05-21T02:06:47.977Z,73.78
2023-05-21T02:07:52.427Z,73.71
2023-05-21T02:08:55.961Z,73.56
2023-05-21T02:09:58.851Z,73.58
2023-05-21T02:11:01.823Z,73.72
2023-05-21T02:12:05.209Z,73.65
2023-05-21T02:13:08.336Z,73.91
2023-05-21T02:14:11.147Z,73.42
2023-05-21T02:15:18.329Z,73.74
2023-05-21T02:16:22.770Z,73.69
2023-05-21T02:17:26.523Z,73.51
2023-05-21T02:18:29.642Z,73.56
2023-05-21T02:19:32.702Z,73.72
2023-05-21T02:20:35.799Z,73.61
2023-05-21T02:21:38.742Z,73.65
2023-05-21T02:22:43.994Z,73.49
2023-05-21T02:23:47.114Z,73.87
2023-05-21T02:24:50.173Z,74.08
2023-05-21T02:25:53.176Z,74.06
2023-05-21T02:26:56.558Z,74.23
2023-05-21T02:27:59.815Z,74.31
2023-05-21T02:29:04.329Z,74.50
2023-05-21T02:30:09.292Z,74.36
2023-05-21T02:31:12.775Z,74.67
2023-05-21T02:32:15.708Z,74.77
2023-05-21T02:33:20.478Z,74.36
2023-05-21T02:34:25.024Z,74.51
2023-05-21T02:35:28.200Z,74.58
2023-05-21T02:36:33.563Z,74.51
2023-05-21T02:37:37.844Z,74.40
2023-05-21T02:38:44.055Z,74.84
2023-05-21T02:39:47.127Z,75.29
2023-05-21T02:40:53.760Z,75.06
2023-05-21T02:41:56.718Z,74.91
2023-05-21T02:42:59.877Z,74.49
2023-05-21T02:44:02.949Z,74.04
2023-05-21T02:45:12.190Z,74.64
2023-05-21T02:46:15.309Z,74.42
2023-05-21T02:47:20.162Z,74.22
2023-05-21T02:48:23.077Z,74.35
2023-05-21T02:49:26.163Z,74.39
2023-05-21T02:50:29.066Z,74.34
2023-05-21T02:51:32.056Z,74.27
2023-05-21T02:52:35.186Z,74.26
2023-05-21T02:53:38.144Z,74.31
2023-05-21T02:54:41.064Z,74.31
2023-05-21T02:55:44.103Z,74.42
2023-05-21T02:56:46.955Z,74.66
2023-05-21T02:57:49.904Z,74.13
2023-05-21T02:58:52.823Z,74.16
2023-05-21T02:59:55.859Z,74.35
2023-05-21T03:00:58.970Z,74.40
2023-05-21T03:02:02.185Z,74.42
2023-05-21T03:03:05.648Z,74.31
2023-05-21T03:04:08.641Z,74.45
2023-05-21T03:05:11.730Z,73.39
2023-05-21T03:06:14.764Z,73.10
2023-05-21T03:07:20.521Z,72.92
2023-05-21T03:08:23.527Z,73.34
2023-05-21T03:09:26.558Z,73.09
2023-05-21T03:10:29.497Z,73.06
2023-05-21T03:11:32.720Z,73.12
2023-05-21T03:12:35.647Z,73.65
2023-05-21T03:13:38.650Z,73.49
2023-05-21T03:14:46.691Z,73.33
2023-05-21T03:15:49.925Z,72.89
2023-05-21T03:16:52.937Z,72.28
2023-05-21T03:17:56.057Z,72.21
2023-05-21T03:18:59.702Z,72.35
2023-05-21T03:20:05.514Z,72.86
2023-05-21T03:21:08.687Z,72.76
2023-05-21T03:22:11.824Z,72.98
2023-05-21T03:23:16.598Z,73.09
2023-05-21T03:24:19.937Z,72.86
2023-05-21T03:25:25.521Z,72.72
2023-05-21T03:26:29.754Z,72.92
2023-05-21T03:27:32.977Z,73.13
2023-05-21T03:28:36.181Z,72.92
2023-05-21T03:29:40.242Z,72.71
2023-05-21T03:30:46.659Z,72.18
2023-05-21T03:31:49.722Z,71.89
2023-05-21T03:32:52.851Z,71.86
2023-05-21T03:33:55.958Z,72.01
2023-05-21T03:34:58.943Z,71.91
2023-05-21T03:36:02.003Z,71.69
2023-05-21T03:37:05.173Z,71.98
2023-05-21T03:38:08.119Z,72.20
2023-05-21T03:39:11.047Z,72.34
2023-05-21T03:40:14.448Z,72.29
2023-05-21T03:41:17.431Z,72.25
2023-05-21T03:42:20.347Z,72.06
2023-05-21T03:43:23.282Z,72.26
2023-05-21T03:44:26.288Z,72.38
2023-05-21T03:45:29.273Z,72.31
2023-05-21T03:46:32.497Z,72.05
2023-05-21T03:47:36.495Z,71.64
2023-05-21T03:48:39.626Z,71.62
2023-05-21T03:49:42.704Z,71.14
2023-05-21T03:50:45.594Z,70.69
2023-05-21T03:51:48.414Z,70.94
2023-05-21T03:52:51.273Z,70.85
2023-05-21T03:53:54.132Z,70.52
2023-05-21T03:54:57.098Z,71.11
2023-05-21T03:56:00.058Z,71.05
2023-05-21T03:57:02.965Z,70.89
2023-05-21T03:58:06.298Z,70.91
2023-05-21T03:59:09.248Z,70.63
2023-05-21T04:00:12.617Z,70.73
2023-05-21T04:01:15.659Z,70.63
2023-05-21T04:02:18.652Z,70.29
2023-05-21T04:03:22.158Z,70.46
2023-05-21T04:04:25.222Z,70.42
2023-05-21T04:05:28.114Z,70.13
2023-05-21T04:06:31.080Z,69.89
2023-05-21T04:07:34.144Z,70.30
2023-05-21T04:08:38.349Z,70.20
2023-05-21T04:09:42.302Z,70.37
2023-05-21T04:10:45.305Z,70.47
2023-05-21T04:11:48.378Z,69.95
2023-05-21T04:12:52.749Z,70.24
2023-05-21T04:13:55.681Z,70.43
2023-05-21T04:14:58.570Z,70.62
2023-05-21T04:16:01.583Z,70.85
2023-05-21T04:17:07.948Z,70.13
2023-05-21T04:18:11.205Z,70.32
2023-05-21T04:19:14.293Z,70.15
2023-05-21T04:20:17.450Z,70.43
2023-05-21T04:21:20.413Z,70.09
2023-05-21T04:22:23.730Z,69.87
2023-05-21T04:23:26.883Z,69.87
2023-05-21T04:24:29.806Z,69.33
2023-05-21T04:25:32.779Z,69.26
2023-05-21T04:26:35.868Z,68.97
2023-05-21T04:27:38.857Z,68.94
2023-05-21T04:28:42.700Z,69.02
2023-05-21T04:29:45.651Z,68.70
2023-05-21T04:30:50.205Z,68.95
2023-05-21T04:31:53.226Z,68.97
2023-05-21T04:32:56.373Z,68.95
2023-05-21T04:33:59.830Z,68.39
2023-05-21T04:35:02.779Z,67.48
2023-05-21T04:36:05.830Z,67.46
2023-05-21T04:37:09.662Z,67.27
2023-05-21T04:38:12.883Z,67.46
2023-05-21T04:39:16.973Z,66.11
2023-05-21T04:40:24.690Z,65.96
2023-05-21T04:41:28.932Z,66.13
2023-05-21T04:42:33.477Z,66.39
2023-05-21T04:43:37.083Z,66.35
2023-05-21T04:44:44.865Z,66.20
2023-05-21T04:45:47.902Z,65.64
2023-05-21T04:46:50.915Z,65.56
2023-05-21T04:47:53.879Z,65.91
2023-05-21T04:48:58.265Z,66.30
2023-05-21T04:50:02.579Z,66.22
2023-05-21T04:51:08.282Z,66.10
2023-05-21T04:52:11.384Z,66.46
2023-05-21T04:53:14.496Z,66.82
2023-05-21T04:54:17.436Z,66.78
2023-05-21T04:55:20.446Z,66.09
2023-05-21T04:56:23.303Z,66.58
2023-05-21T04:57:26.230Z,66.53
2023-05-21T04:58:29.141Z,66.70
2023-05-21T04:59:32.162Z,66.31
2023-05-21T05:00:38.155Z,66.28
2023-05-21T05:01:41.514Z,66.31
2023-05-21T05:02:44.735Z,65.91
2023-05-21T05:03:47.915Z,66.00
2023-05-21T05:04:51.021Z,66.44
2023-05-21T05:05:54.122Z,66.76
2023-05-21T05:06:57.063Z,66.12
2023-05-21T05:08:00.799Z,66.48
2023-05-21T05:09:04.884Z,66.67
2023-05-21T05:10:08.411Z,66.92
2023-05-21T05:11:11.425Z,65.70
2023-05-21T05:12:14.513Z,65.35
2023-05-21T05:13:17.694Z,65.34
2023-05-21T05:14:20.732Z,65.94
2023-05-21T05:15:23.830Z,66.29
2023-05-21T05:16:27.077Z,65.93
2023-05-21T05:17:30.151Z,66.10
2023-05-21T05:18:34.403Z,66.37
2023-05-21T05:19:37.435Z,65.00
2023-05-21T05:20:40.465Z,65.50
2023-05-21T05:21:43.451Z,66.03
2023-05-21T05:22:46.804Z,65.89
2023-05-21T05:23:50.428Z,65.44
2023-05-21T05:24:53.346Z,64.98
2023-05-21T05:25:56.304Z,64.50
2023-05-21T05:26:59.335Z,65.09
2023-05-21T05:28:02.374Z,64.92
2023-05-21T05:29:05.446Z,64.83
2023-05-21T05:30:09.286Z,64.67
2023-05-21T05:31:12.430Z,63.92
2023-05-21T05:32:15.365Z,64.47
2023-05-21T05:33:18.372Z,64.35
2023-05-21T05:34:21.841Z,63.66
2023-05-21T05:35:24.808Z,64.15
2023-05-21T05:36:27.797Z,64.15
2023-05-21T05:37:31.287Z,63.97
2023-05-21T05:38:35.257Z,64.56
2023-05-21T05:39:38.162Z,64.47
2023-05-21T05:40:41.171Z,63.33
2023-05-21T05:41:44.106Z,62.95
2023-05-21T05:42:47.181Z,63.34
2023-05-21T05:43:50.543Z,63.78
2023-05-21T05:44:53.381Z,64.03
2023-05-21T05:45:56.614Z,64.24
2023-05-21T05:46:59.467Z,64.28
2023-05-21T05:48:02.662Z,64.34
2023-05-21T05:49:05.766Z,63.37
2023-05-21T05:50:08.936Z,64.00
2023-05-21T05:51:12.290Z,63.73
2023-05-21T05:52:15.367Z,63.63
2023-05-21T05:53:18.315Z,63.14
2023-05-21T05:54:21.340Z,63.07
2023-05-21T05:55:25.407Z,62.50
2023-05-21T05:56:28.416Z,62.98
2023-05-21T05:57:31.354Z,62.73
2023-05-21T05:58:34.348Z,62.84
2023-05-21T05:59:37.288Z,61.93
2023-05-21T06:00:40.311Z,61.39
2023-05-21T06:01:43.146Z,61.97
2023-05-21T06:02:46.310Z,62.69
2023-05-21T06:03:49.348Z,61.76
2023-05-21T06:04:52.248Z,62.16
2023-05-21T06:05:55.235Z,61.93
2023-05-21T06:06:58.158Z,61.27
2023-05-21T06:08:01.731Z,61.06
2023-05-21T06:09:05.040Z,60.96
2023-05-21T06:10:09.230Z,61.34
2023-05-21T06:11:12.308Z,60.28
2023-05-21T06:12:16.315Z,60.49
2023-05-21T06:13:19.392Z,59.92
2023-05-21T06:14:22.472Z,59.59
2023-05-21T06:15:25.337Z,59.96
2023-05-21T06:16:31.742Z,59.62
2023-05-21T06:17:35.087Z,60.59
2023-05-21T06:18:38.871Z,61.19
2023-05-21T06:19:41.802Z,60.76
2023-05-21T06:20:44.877Z,59.02
2023-05-21T06:21:47.953Z,59.79
2023-05-21T06:22:51.007Z,60.32
2023-05-21T06:23:53.870Z,59.45
2023-05-21T06:24:56.804Z,59.15
2023-05-21T06:25:59.829Z,59.65
2023-05-21T06:27:04.389Z,60.57
2023-05-21T06:28:07.466Z,61.30
2023-05-21T06:29:10.461Z,61.07
2023-05-21T06:30:13.496Z,60.99
2023-05-21T06:31:16.629Z,60.46
2023-05-21T06:32:21.932Z,60.23
2023-05-21T06:33:25.081Z,58.78
2023-05-21T06:34:29.112Z,58.47
2023-05-21T06:35:32.035Z,58.10
2023-05-21T06:36:35.324Z,57.60
2023-05-21T06:37:38.271Z,57.82
2023-05-21T06:38:43.251Z,58.27
2023-05-21T06:39:46.197Z,57.63
2023-05-21T06:40:49.760Z,58.22
2023-05-21T06:41:52.862Z,58.33
2023-05-21T06:42:56.659Z,57.81
2023-05-21T06:43:59.507Z,58.24
2023-05-21T06:45:02.493Z,57.50
2023-05-21T06:46:05.402Z,57.94
2023-05-21T06:47:08.499Z,57.12
2023-05-21T06:48:12.748Z,56.79
2023-05-21T06:49:15.798Z,57.56
2023-05-21T06:50:19.164Z,59.18
2023-05-21T06:51:22.084Z,59.51
2023-05-21T06:52:25.120Z,57.07
2023-05-21T06:53:28.231Z,56.14
2023-05-21T06:54:31.238Z,56.03
2023-05-21T06:55:34.364Z,55.51
2023-05-21T06:56:37.450Z,55.65
2023-05-21T06:57:40.290Z,56.13
2023-05-21T06:58:43.262Z,55.78
2023-05-21T06:59:46.291Z,54.87
2023-05-21T07:00:49.519Z,55.56
2023-05-21T07:01:52.452Z,55.28
2023-05-21T07:02:56.006Z,56.03
2023-05-21T07:03:58.869Z,56.16
2023-05-21T07:05:01.863Z,56.00
2023-05-21T07:06:04.908Z,55.48
2023-05-21T07:07:07.778Z,55.26
2023-05-21T07:08:12.062Z,54.76
2023-05-21T07:09:15.850Z,54.70
2023-05-21T07:10:18.920Z,54.39
2023-05-21T07:11:21.900Z,53.66
2023-05-21T07:12:25.030Z,54.43
2023-05-21T07:13:27.927Z,53.95
2023-05-21T07:14:30.869Z,54.47
2023-05-21T07:15:33.893Z,54.43
2023-05-21T07:16:37.008Z,54.89
2023-05-21T07:17:40.051Z,54.49
2023-05-21T07:18:43.127Z,53.14
2023-05-21T07:19:46.330Z,53.55
2023-05-21T07:20:49.318Z,52.45
2023-05-21T07:21:52.200Z,52.24
2023-05-21T07:22:55.382Z,52.95
2023-05-21T07:23:58.281Z,52.66
2023-05-21T07:25:01.340Z,53.15
2023-05-21T07:26:04.225Z,52.15
2023-05-21T07:27:17.621Z,52.61
2023-05-21T07:28:27.621Z,52.85
2023-05-21T07:29:30.740Z,52.44
2023-05-21T07:30:33.852Z,53.68
2023-05-21T07:31:36.994Z,52.88
2023-05-21T07:32:39.980Z,54.27
2023-05-21T07:33:43.035Z,53.77
2023-05-21T07:34:45.994Z,53.96
2023-05-21T07:35:49.230Z,52.58
2023-05-21T07:36:52.249Z,51.63
2023-05-21T07:37:55.239Z,51.97
2023-05-21T07:38:58.170Z,51.92
2023-05-21T07:40:01.353Z,51.22
2023-05-21T07:41:04.244Z,50.80
2023-05-21T07:42:07.306Z,50.93
2023-05-21T07:43:10.249Z,52.62
2023-05-21T07:44:13.359Z,53.60
2023-05-21T07:45:16.285Z,49.74
2023-05-21T07:46:19.263Z,50.98
2023-05-21T07:47:23.993Z,52.00
2023-05-21T07:48:27.397Z,50.15
2023-05-21T07:49:30.444Z,51.05
2023-05-21T07:50:33.487Z,51.41
2023-05-21T07:51:36.550Z,49.29
2023-05-21T07:52:39.574Z,49.77
2023-05-21T07:53:42.595Z,49.36
2023-05-21T07:54:45.715Z,49.58
2023-05-21T07:55:48.810Z,49.26
2023-05-21T07:56:51.944Z,49.51
2023-05-21T07:57:55.019Z,49.58
2023-05-21T07:58:57.978Z,49.51
2023-05-21T08:00:00.942Z,48.79
2023-05-21T08:01:03.866Z,49.41
2023-05-21T08:02:06.739Z,49.53
2023-05-21T08:03:09.933Z,50.07
2023-05-21T08:04:13.152Z,49.17
2023-05-21T08:05:19.333Z,49.34
2023-05-21T08:06:25.420Z,49.52
2023-05-21T08:07:28.271Z,49.16
2023-05-21T08:08:31.247Z,48.89
2023-05-21T08:09:34.306Z,48.89
2023-05-21T08:10:37.552Z,48.49
2023-05-21T08:11:40.766Z,48.65
2023-05-21T08:12:43.707Z,50.47
2023-05-21T08:13:46.773Z,48.86
2023-05-21T08:14:49.674Z,47.99
2023-05-21T08:15:53.522Z,49.32
2023-05-21T08:16:56.561Z,49.38
2023-05-21T08:17:59.580Z,48.99
2023-05-21T08:19:02.718Z,49.02
2023-05-21T08:20:06.386Z,49.75
2023-05-21T08:21:09.411Z,49.08
2023-05-21T08:22:12.471Z,48.44
2023-05-21T08:23:15.474Z,46.82
2023-05-21T08:24:18.522Z,46.77
2023-05-21T08:25:21.504Z,48.18
2023-05-21T08:26:24.520Z,46.50
2023-05-21T08:27:27.322Z,47.54
2023-05-21T08:28:31.154Z,46.70
2023-05-21T08:29:34.698Z,46.60
2023-05-21T08:30:37.679Z,46.98
2023-05-21T08:31:41.019Z,46.97
2023-05-21T08:32:44.324Z,46.91
2023-05-21T08:33:52.052Z,47.29
2023-05-21T08:34:55.015Z,47.17
2023-05-21T08:35:58.077Z,47.13
2023-05-21T08:37:01.205Z,47.00
2023-05-21T08:38:04.118Z,45.69
2023-05-21T08:39:07.094Z,45.56
2023-05-21T08:40:11.678Z,46.00
2023-05-21T08:41:16.969Z,45.01
2023-05-21T08:42:43.937Z,45.63
2023-05-21T08:43:50.394Z,48.22
2023-05-21T08:44:57.726Z,45.42
2023-05-21T08:46:04.081Z,45.68
2023-05-21T08:47:10.832Z,45.01
2023-05-21T08:48:17.268Z,45.27
2023-05-21T08:49:27.327Z,45.29
2023-05-21T08:50:32.964Z,45.36
2023-05-21T08:51:36.375Z,45.13
2023-05-21T08:52:39.575Z,45.38
2023-05-21T08:53:43.354Z,46.83
2023-05-21T08:54:47.017Z,46.33
2023-05-21T08:55:52.934Z,46.70
2023-05-21T08:56:57.040Z,45.38
2023-05-21T08:58:00.937Z,45.10
2023-05-21T08:59:03.870Z,44.98
2023-05-21T09:00:07.721Z,45.62
2023-05-21T09:01:12.695Z,46.62
2023-05-21T09:02:18.643Z,46.87
2023-05-21T09:03:22.644Z,47.26
2023-05-21T09:04:27.950Z,45.16
2023-05-21T09:05:32.013Z,45.43
2023-05-21T09:06:35.082Z,46.48
2023-05-21T09:07:50.387Z,47.55
2023-05-21T09:09:05.067Z,44.58
2023-05-21T09:10:10.236Z,44.73
2023-05-21T09:11:14.541Z,43.70
2023-05-21T09:12:17.798Z,43.09
2023-05-21T09:13:21.272Z,43.12
2023-05-21T09:14:24.800Z,42.99
2023-05-21T09:15:27.853Z,43.31
2023-05-21T09:16:30.882Z,43.78
2023-05-21T09:17:34.000Z,44.24
2023-05-21T09:18:37.123Z,44.79
2023-05-21T09:20:13.775Z,43.70
2023-05-21T09:21:28.630Z,44.77
2023-05-21T09:22:31.761Z,44.98
2023-05-21T09:23:34.781Z,46.21
2023-05-21T09:24:37.773Z,46.52
2023-05-21T09:25:42.304Z,46.20
2023-05-21T09:26:45.370Z,42.37
2023-05-21T09:27:48.543Z,42.41
2023-05-21T09:29:01.374Z,43.33
2023-05-21T09:30:10.671Z,43.88
2023-05-21T09:31:13.620Z,41.94
2023-05-21T09:32:18.016Z,43.10
2023-05-21T09:33:29.993Z,44.46
2023-05-21T09:34:36.988Z,45.60
2023-05-21T09:35:47.404Z,45.73
2023-05-21T09:36:50.742Z,43.26
2023-05-21T09:37:54.332Z,41.68
2023-05-21T09:39:00.332Z,41.69
2023-05-21T09:40:10.433Z,42.14
2023-05-21T09:41:14.118Z,40.67
2023-05-21T09:42:17.482Z,41.64
2023-05-21T09:43:22.173Z,41.51
2023-05-21T09:44:25.185Z,42.09
2023-05-21T09:45:29.213Z,40.86
2023-05-21T09:46:40.817Z,40.26
2023-05-21T09:47:46.182Z,40.73
2023-05-21T09:48:49.041Z,39.95
2023-05-21T09:49:51.864Z,41.09
2023-05-21T09:50:54.849Z,40.92
2023-05-21T09:52:00.915Z,40.77
2023-05-21T09:53:03.939Z,39.91
2023-05-21T09:54:06.792Z,41.52
2023-05-21T09:55:14.884Z,40.97
2023-05-21T09:56:25.856Z,41.07
2023-05-21T09:57:29.715Z,39.86
2023-05-21T09:58:34.757Z,40.46
2023-05-21T09:59:40.704Z,41.77
2023-05-21T10:00:43.692Z,41.24
2023-05-21T10:01:47.020Z,39.93
2023-05-21T10:02:55.378Z,39.21
2023-05-21T10:04:00.161Z,40.72
2023-05-21T10:05:07.338Z,41.30
2023-05-21T10:06:11.947Z,41.06
2023-05-21T10:07:26.766Z,39.26
2023-05-21T10:08:33.757Z,38.54
2023-05-21T10:09:40.249Z,40.60
2023-05-21T10:10:44.795Z,41.72
2023-05-21T10:11:53.112Z,40.26
2023-05-21T10:13:01.353Z,40.92
2023-05-21T10:14:07.832Z,39.68
2023-05-21T10:15:16.486Z,39.73
2023-05-21T10:16:20.075Z,40.56
2023-05-21T10:17:25.287Z,39.30
2023-05-21T10:18:30.066Z,39.23
2023-05-21T10:19:35.646Z,38.20
2023-05-21T10:20:39.167Z,39.52
2023-05-21T10:21:43.088Z,39.94
2023-05-21T10:22:46.793Z,39.73
2023-05-21T10:23:50.838Z,39.71
2023-05-21T10:24:54.715Z,39.48
2023-05-21T10:25:59.284Z,38.69
2023-05-21T10:27:04.172Z,38.03
2023-05-21T10:28:07.419Z,38.85
2023-05-21T10:29:10.775Z,39.54
2023-05-21T10:30:15.454Z,38.81
2023-05-21T10:31:20.258Z,39.34
2023-05-21T10:32:24.624Z,40.72
2023-05-21T10:33:29.910Z,39.28
2023-05-21T10:34:33.239Z,39.50
2023-05-21T10:35:40.870Z,40.27
2023-05-21T10:36:44.843Z,36.41
2023-05-21T10:37:49.963Z,37.56
2023-05-21T10:38:53.808Z,39.71
2023-05-21T10:39:57.498Z,40.84
2023-05-21T10:41:05.145Z,39.86
2023-05-21T10:42:21.492Z,39.28
2023-05-21T10:43:50.017Z,37.26
2023-05-21T10:45:17.721Z,38.67
2023-05-21T10:46:29.990Z,39.85
2023-05-21T10:47:54.599Z,39.76
2023-05-21T10:49:01.785Z,39.70
2023-05-21T10:50:27.462Z,39.15
2023-05-21T10:51:53.537Z,39.54
2023-05-21T10:53:22.083Z,39.10
2023-05-21T10:54:55.815Z,39.36
2023-05-21T10:56:27.234Z,39.35
2023-05-21T10:58:09.422Z,37.86
2023-05-21T10:59:22.585Z,38.00
2023-05-21T11:00:27.276Z,38.45
2023-05-21T11:01:34.343Z,37.98
2023-05-21T11:02:37.894Z,37.60
2023-05-21T11:03:41.570Z,38.90
2023-05-21T11:04:49.513Z,41.15
2023-05-21T11:05:54.367Z,40.93
2023-05-21T11:06:59.562Z,40.66
2023-05-21T11:08:02.716Z,38.62
2023-05-21T11:09:16.814Z,37.49
2023-05-21T11:10:45.531Z,37.24
2023-05-21T11:11:52.036Z,36.14
2023-05-21T11:13:15.130Z,36.58
2023-05-21T11:14:38.456Z,37.35
2023-05-21T11:16:16.972Z,38.85
2023-05-21T11:17:41.020Z,38.05
2023-05-21T11:18:46.787Z,38.14
2023-05-21T11:19:51.911Z,37.78
2023-05-21T11:20:54.754Z,39.01
2023-05-21T11:21:57.740Z,37.94
2023-05-21T11:23:00.821Z,37.88
2023-05-21T11:24:06.821Z,38.89
2023-05-21T11:25:10.556Z,38.89
2023-05-21T11:26:16.608Z,37.45
2023-05-21T11:27:40.249Z,37.06
2023-05-21T11:28:43.380Z,38.14
2023-05-21T11:29:46.416Z,38.33
2023-05-21T11:31:23.083Z,38.28
2023-05-21T11:32:26.594Z,40.70
2023-05-21T11:33:29.571Z,40.28
2023-05-21T11:34:39.928Z,40.36
2023-05-21T11:35:45.926Z,39.90
2023-05-21T11:36:50.159Z,39.33
2023-05-21T11:37:54.942Z,38.00
2023-05-21T11:39:22.788Z,39.03
2023-05-21T11:40:27.453Z,38.94
2023-05-21T11:41:30.780Z,36.17
2023-05-21T11:42:42.457Z,37.91
2023-05-21T11:43:45.413Z,34.41
2023-05-21T11:44:48.872Z,36.46
2023-05-21T11:45:53.537Z,35.65
2023-05-21T11:46:56.613Z,35.99
2023-05-21T11:48:00.900Z,37.46
2023-05-21T11:49:04.395Z,37.31
2023-05-21T11:50:14.411Z,37.12
2023-05-21T11:51:17.892Z,37.13
2023-05-21T11:52:21.817Z,36.97
2023-05-21T11:53:25.013Z,36.49
2023-05-21T11:54:37.755Z,36.88
2023-05-21T11:55:43.952Z,35.97
2023-05-21T11:56:48.544Z,35.92
2023-05-21T11:57:54.052Z,36.57
2023-05-21T11:58:57.005Z,35.46
2023-05-21T12:00:02.603Z,36.74
2023-05-21T12:01:06.030Z,37.02
2023-05-21T12:02:09.325Z,37.51
2023-05-21T12:03:15.079Z,36.74
2023-05-21T12:04:18.097Z,36.14
2023-05-21T12:05:21.310Z,36.30
2023-05-21T12:06:27.586Z,36.48
2023-05-21T12:07:30.625Z,36.10
2023-05-21T12:08:33.717Z,36.38
2023-05-21T12:09:41.103Z,36.31
2023-05-21T12:10:46.057Z,36.93
2023-05-21T12:11:49.150Z,37.50
2023-05-21T12:12:55.546Z,37.89
2023-05-21T12:13:59.169Z,37.33
2023-05-21T12:15:02.809Z,37.43
2023-05-21T12:16:06.939Z,37.16
2023-05-21T12:17:10.802Z,36.83
2023-05-21T12:18:16.928Z,37.22
2023-05-21T12:19:20.204Z,38.85
2023-05-21T12:20:24.176Z,39.83
2023-05-21T12:21:30.912Z,37.03
2023-05-21T12:22:33.878Z,36.86
2023-05-21T12:23:36.999Z,37.64
2023-05-21T12:24:39.914Z,36.68
2023-05-21T12:25:42.931Z,36.18
2023-05-21T12:26:46.196Z,36.51
2023-05-21T12:27:52.989Z,37.37
2023-05-21T12:28:58.904Z,36.23
2023-05-21T12:30:01.931Z,35.73
2023-05-21T12:31:05.088Z,35.56
2023-05-21T12:32:09.693Z,35.88
2023-05-21T12:33:14.471Z,36.43
2023-05-21T12:34:37.913Z,35.64
2023-05-21T12:35:40.878Z,34.84
2023-05-21T12:36:48.491Z,35.16
2023-05-21T12:37:51.614Z,35.08
2023-05-21T12:38:55.070Z,34.95
2023-05-21T12:40:03.414Z,35.53
2023-05-21T12:41:06.991Z,35.96
2023-05-21T12:42:10.516Z,36.67
2023-05-21T12:43:13.723Z,35.32
2023-05-21T12:44:16.760Z,34.89
2023-05-21T12:45:21.330Z,34.41
2023-05-21T12:46:24.962Z,33.85
2023-05-21T12:47:28.814Z,33.85
2023-05-21T12:48:31.914Z,35.12
2023-05-21T12:49:43.138Z,35.54
2023-05-21T12:50:46.254Z,36.29
2023-05-21T12:51:50.479Z,37.19
2023-05-21T12:52:58.360Z,36.32
2023-05-21T12:54:02.801Z,35.91
2023-05-21T12:55:07.137Z,35.27
2023-05-21T12:56:12.969Z,34.78
2023-05-21T12:57:21.439Z,36.62
2023-05-21T12:58:24.629Z,35.61
2023-05-21T12:59:27.628Z,36.37
2023-05-21T13:00:32.549Z,35.89
2023-05-21T13:01:37.202Z,37.07
2023-05-21T13:02:44.793Z,34.63
2023-05-21T13:03:48.034Z,35.41
2023-05-21T13:04:57.552Z,36.95
2023-05-21T13:06:01.452Z,36.09
2023-05-21T13:07:05.114Z,36.42
2023-05-21T13:08:10.852Z,35.78
2023-05-21T13:09:13.783Z,35.78
2023-05-21T13:10:19.525Z,36.17
2023-05-21T13:11:23.073Z,36.22
2023-05-21T13:12:28.985Z,36.32
2023-05-21T13:13:32.040Z,36.86
2023-05-21T13:14:35.147Z,37.64
2023-05-21T13:15:38.300Z,38.44
2023-05-21T13:16:41.288Z,36.43
2023-05-21T13:17:44.258Z,36.66
2023-05-21T13:18:47.344Z,37.98
2023-05-21T13:20:26.707Z,38.01
2023-05-21T13:21:29.897Z,37.12
2023-05-21T13:22:32.917Z,37.44
2023-05-21T13:23:36.019Z,36.61
2023-05-21T13:24:40.122Z,35.90
2023-05-21T13:25:43.160Z,36.62
2023-05-21T13:26:46.253Z,35.81
2023-05-21T13:27:50.750Z,34.96
2023-05-21T13:28:53.869Z,35.79
2023-05-21T13:29:57.129Z,35.62
2023-05-21T13:31:00.124Z,35.10
2023-05-21T13:32:03.291Z,35.27
2023-05-21T13:33:06.857Z,34.34
2023-05-21T13:34:14.083Z,35.22
2023-05-21T13:35:17.627Z,35.80
2023-05-21T13:36:20.782Z,35.27
2023-05-21T13:37:23.738Z,34.92
2023-05-21T13:38:26.583Z,34.72
2023-05-21T13:39:29.545Z,35.54
2023-05-21T13:40:32.633Z,35.67
2023-05-21T13:41:35.666Z,35.12
2023-05-21T13:42:39.055Z,36.01
2023-05-21T13:43:45.340Z,36.00
2023-05-21T13:44:48.652Z,34.67
2023-05-21T13:45:52.915Z,35.11
2023-05-21T13:46:56.155Z,36.18
2023-05-21T13:47:59.131Z,35.74
2023-05-21T13:49:03.761Z,35.27
2023-05-21T13:50:07.503Z,34.47
2023-05-21T13:51:10.646Z,35.75
2023-05-21T13:52:13.735Z,34.19
2023-05-21T13:53:16.733Z,35.88
2023-05-21T13:54:19.591Z,35.26
2023-05-21T13:55:22.672Z,35.65